createdAt,value
2019-05-28T00:00:11.761Z,16.99
2019-05-28T00:02:41.372Z,16.96
2019-05-28T00:05:10.896Z,16.99
2019-05-28T00:07:40.405Z,16.98
2019-05-28T00:10:10.643Z,16.99
2019-05-28T00:12:40.123Z,17.03
2019-05-28T00:15:09.767Z,17.04
2019-05-28T00:17:39.497Z,17.09
2019-05-28T00:20:09.431Z,17.03
2019-05-28T00:22:38.862Z,17.08
2019-05-28T00:25:08.928Z,17.06
2019-05-28T00:27:38.359Z,17.06
2019-05-28T00:30:19.734Z,17.07
2019-05-28T00:32:40.863Z,16.94
2019-05-28T00:35:10.696Z,16.87
2019-05-28T00:37:40.157Z,16.81
2019-05-28T00:40:11.019Z,16.85
2019-05-28T00:42:40.461Z,16.86
2019-05-28T00:45:10.918Z,16.80
2019-05-28T00:47:40.355Z,16.79
2019-05-28T00:50:10.728Z,16.76
2019-05-28T00:52:40.228Z,16.80
2019-05-28T00:55:10.218Z,16.72
2019-05-28T00:57:43.324Z,16.79
2019-05-28T01:00:13.575Z,16.75
2019-05-28T01:02:43.010Z,16.72
2019-05-28T01:05:12.795Z,16.66
2019-05-28T01:07:42.225Z,16.73
2019-05-28T01:10:12.144Z,16.74
2019-05-28T01:12:41.634Z,16.67
2019-05-28T01:15:11.512Z,16.76
2019-05-28T01:17:40.963Z,16.68
2019-05-28T01:20:11.026Z,16.66
2019-05-28T01:22:40.462Z,16.77
2019-05-28T01:25:10.107Z,16.71
2019-05-28T01:27:39.562Z,16.83
2019-05-28T01:30:09.718Z,16.87
2019-05-28T01:32:39.162Z,16.84
2019-05-28T01:35:08.745Z,16.86
2019-05-28T01:37:38.190Z,16.85
2019-05-28T01:40:08.072Z,16.94
2019-05-28T01:42:37.511Z,16.97
2019-05-28T01:45:09.007Z,16.92
2019-05-28T01:47:38.707Z,16.90
2019-05-28T01:50:11.556Z,16.86
2019-05-28T01:52:40.991Z,16.80
2019-05-28T01:55:10.898Z,16.92
2019-05-28T01:57:40.338Z,16.99
2019-05-28T02:00:10.817Z,16.95
2019-05-28T02:02:40.264Z,17.04
2019-05-28T02:05:10.627Z,16.97
2019-05-28T02:07:40.070Z,17.02
2019-05-28T02:10:10.030Z,16.85
2019-05-28T02:12:39.486Z,16.84
2019-05-28T02:15:10.327Z,16.90
2019-05-28T02:17:39.780Z,16.97
2019-05-28T02:20:11.322Z,16.90
2019-05-28T02:22:40.904Z,16.90
2019-05-28T02:25:11.173Z,17.00
2019-05-28T02:27:40.608Z,17.06
2019-05-28T02:30:12.580Z,17.08
2019-05-28T02:32:42.007Z,17.07
2019-05-28T02:35:11.956Z,17.05
2019-05-28T02:37:41.403Z,17.13
2019-05-28T02:40:11.482Z,17.16
2019-05-28T02:42:40.916Z,17.18
2019-05-28T02:45:11.578Z,17.21
2019-05-28T02:47:41.095Z,17.19
2019-05-28T02:50:13.031Z,17.23
2019-05-28T02:52:43.718Z,17.21
2019-05-28T02:55:14.070Z,17.19
2019-05-28T02:57:44.863Z,17.12
2019-05-28T03:00:17.482Z,17.22
2019-05-28T03:02:49.319Z,17.16
2019-05-28T03:05:19.456Z,17.19
2019-05-28T03:07:50.511Z,17.17
2019-05-28T03:11:01.389Z,17.18
2019-05-28T03:13:08.976Z,17.17
2019-05-28T03:15:41.685Z,17.11
2019-05-28T03:18:13.181Z,17.07
2019-05-28T03:20:43.558Z,17.00
2019-05-28T03:23:13.951Z,17.00
2019-05-28T03:25:43.473Z,16.92
2019-05-28T03:28:13.003Z,16.94
2019-05-28T03:30:42.438Z,16.92
2019-05-28T03:33:11.921Z,16.66
2019-05-28T03:35:44.047Z,16.79
2019-05-28T03:38:14.440Z,16.87
2019-05-28T03:40:47.674Z,16.93
2019-05-28T03:43:17.174Z,16.85
2019-05-28T03:45:46.902Z,16.88
2019-05-28T03:48:16.343Z,16.84
2019-05-28T03:50:45.831Z,16.88
2019-05-28T03:53:15.294Z,16.92
2019-05-28T03:55:44.734Z,16.94
2019-05-28T03:58:14.234Z,16.98
2019-05-28T04:00:43.699Z,16.95
2019-05-28T04:03:13.130Z,16.99
2019-05-28T04:05:42.604Z,17.00
2019-05-28T04:08:12.303Z,17.02
2019-05-28T04:10:41.846Z,16.95
2019-05-28T04:13:11.287Z,16.97
2019-05-28T04:15:40.747Z,17.02
2019-05-28T04:18:10.259Z,16.97
2019-05-28T04:20:39.701Z,17.00
2019-05-28T04:23:18.249Z,16.97
2019-05-28T04:25:47.857Z,16.98
2019-05-28T04:28:17.295Z,17.01
2019-05-28T04:30:46.755Z,17.15
2019-05-28T04:33:16.192Z,17.23
2019-05-28T04:35:45.645Z,17.35
2019-05-28T04:38:15.084Z,17.41
2019-05-28T04:40:44.519Z,17.42
2019-05-28T04:43:13.984Z,17.38
2019-05-28T04:45:43.436Z,17.48
2019-05-28T04:48:12.877Z,17.46
2019-05-28T04:50:42.335Z,17.40
2019-05-28T04:53:11.780Z,17.46
2019-05-28T04:55:41.237Z,17.44
2019-05-28T04:58:10.728Z,17.52
2019-05-28T05:00:40.269Z,17.56
2019-05-28T05:03:09.771Z,17.58
2019-05-28T05:05:39.444Z,17.57
2019-05-28T05:08:08.897Z,17.43
2019-05-28T05:10:38.334Z,17.15
2019-05-28T05:13:07.804Z,17.49
2019-05-28T05:15:37.259Z,17.66
2019-05-28T05:18:06.708Z,17.92
2019-05-28T05:20:36.198Z,18.12
2019-05-28T05:23:05.652Z,18.43
2019-05-28T05:25:35.103Z,18.53
2019-05-28T05:28:04.622Z,18.61
2019-05-28T05:30:34.064Z,18.82
2019-05-28T05:33:19.111Z,18.97
2019-05-28T05:35:34.675Z,19.17
2019-05-28T05:38:04.260Z,19.37
2019-05-28T05:40:33.700Z,19.25
2019-05-28T05:43:03.150Z,19.43
2019-05-28T05:45:32.618Z,19.24
2019-05-28T05:48:02.035Z,19.43
2019-05-28T05:50:31.509Z,19.52
2019-05-28T05:53:00.945Z,19.61
2019-05-28T05:55:30.384Z,19.77
2019-05-28T05:57:59.836Z,19.76
2019-05-28T06:00:29.293Z,19.94
2019-05-28T06:02:58.750Z,19.97
2019-05-28T06:05:28.260Z,20.16
2019-05-28T06:07:57.767Z,20.23
2019-05-28T06:10:27.551Z,20.30
2019-05-28T06:12:57.003Z,20.37
2019-05-28T06:15:26.454Z,20.49
2019-05-28T06:17:55.900Z,20.72
2019-05-28T06:20:25.357Z,20.89
2019-05-28T06:22:54.812Z,20.97
2019-05-28T06:25:24.344Z,21.09
2019-05-28T06:27:54.028Z,21.07
2019-05-28T06:30:23.608Z,21.27
2019-05-28T06:32:53.058Z,21.46
2019-05-28T06:35:22.565Z,21.60
2019-05-28T06:37:51.995Z,21.63
2019-05-28T06:40:21.690Z,21.80
2019-05-28T06:42:51.137Z,21.93
2019-05-28T06:45:20.715Z,21.77
2019-05-28T06:47:50.177Z,21.82
2019-05-28T06:50:21.026Z,22.05
2019-05-28T06:52:50.463Z,22.16
2019-05-28T06:55:19.984Z,22.23
2019-05-28T06:57:49.427Z,21.81
2019-05-28T07:00:19.215Z,21.85
2019-05-28T07:02:48.671Z,21.80
2019-05-28T07:05:18.549Z,21.90
2019-05-28T07:07:48.005Z,22.13
2019-05-28T07:10:17.622Z,22.25
2019-05-28T07:12:47.056Z,22.45
2019-05-28T07:15:17.134Z,22.58
2019-05-28T07:17:46.552Z,22.86
2019-05-28T07:20:16.339Z,22.84
2019-05-28T07:22:45.783Z,23.07
2019-05-28T07:25:15.377Z,23.23
2019-05-28T07:27:44.817Z,23.42
2019-05-28T07:30:14.667Z,23.53
2019-05-28T07:32:44.125Z,23.55
2019-05-28T07:35:14.766Z,23.61
2019-05-28T07:37:44.205Z,23.75
2019-05-28T07:40:30.495Z,23.65
2019-05-28T07:42:45.328Z,23.70
2019-05-28T07:45:14.937Z,23.72
2019-05-28T07:47:44.381Z,23.59
2019-05-28T07:50:14.260Z,23.49
2019-05-28T07:52:43.703Z,23.50
2019-05-28T07:55:13.250Z,23.46
2019-05-28T07:57:42.677Z,23.38
2019-05-28T08:00:12.598Z,22.59
2019-05-28T08:02:42.107Z,22.79
2019-05-28T08:05:16.885Z,23.17
2019-05-28T08:07:42.888Z,23.32
2019-05-28T08:10:12.766Z,23.62
2019-05-28T08:12:42.222Z,23.71
2019-05-28T08:15:11.822Z,23.30
2019-05-28T08:17:41.266Z,22.85
2019-05-28T08:20:10.853Z,22.86
2019-05-28T08:22:42.757Z,22.91
2019-05-28T08:25:27.587Z,22.85
2019-05-28T08:27:42.784Z,22.82
2019-05-28T08:30:12.450Z,22.67
2019-05-28T08:32:41.848Z,22.80
2019-05-28T08:35:11.431Z,23.00
2019-05-28T08:37:40.876Z,23.33
2019-05-28T08:40:10.693Z,23.71
2019-05-28T08:42:40.175Z,23.98
2019-05-28T08:45:09.831Z,23.88
2019-05-28T08:47:39.288Z,24.31
2019-05-28T08:50:10.178Z,24.24
2019-05-28T08:52:39.662Z,24.16
2019-05-28T08:55:09.810Z,24.23
2019-05-28T08:57:39.688Z,24.23
2019-05-28T09:00:11.122Z,24.06
2019-05-28T09:02:40.595Z,23.79
2019-05-28T09:05:24.996Z,23.66
2019-05-28T09:07:41.936Z,23.26
2019-05-28T09:10:11.469Z,23.21
2019-05-28T09:12:40.912Z,23.17
2019-05-28T09:15:10.350Z,22.96
2019-05-28T09:17:39.808Z,22.95
2019-05-28T09:20:09.284Z,23.04
2019-05-28T09:22:38.799Z,22.69
2019-05-28T09:25:08.298Z,22.59
2019-05-28T09:27:37.759Z,22.10
2019-05-28T09:30:11.043Z,22.02
2019-05-28T09:32:40.530Z,22.18
2019-05-28T09:35:10.357Z,22.24
2019-05-28T09:37:39.801Z,21.93
2019-05-28T09:40:10.562Z,21.69
2019-05-28T09:42:40.103Z,22.00
2019-05-28T09:45:22.074Z,21.82
2019-05-28T09:47:41.104Z,21.91
2019-05-28T09:50:29.420Z,22.02
2019-05-28T09:52:54.304Z,21.87
2019-05-28T09:55:14.446Z,21.54
2019-05-28T09:57:47.799Z,21.26
2019-05-28T10:00:20.817Z,21.54
2019-05-28T10:02:51.313Z,21.86
2019-05-28T10:05:22.191Z,21.50
2019-05-28T10:07:51.822Z,21.39
2019-05-28T10:10:23.406Z,21.49
2019-05-28T10:12:52.847Z,21.20
2019-05-28T10:15:22.615Z,21.75
2019-05-28T10:17:52.047Z,21.56
2019-05-28T10:20:23.607Z,21.62
2019-05-28T10:22:53.191Z,21.40
2019-05-28T10:25:22.792Z,21.53
2019-05-28T10:28:00.877Z,21.55
2019-05-28T10:30:24.328Z,21.07
2019-05-28T10:32:53.822Z,21.33
2019-05-28T10:35:24.234Z,20.63
2019-05-28T10:37:53.720Z,20.36
2019-05-28T10:40:23.424Z,20.33
2019-05-28T10:42:52.883Z,20.40
2019-05-28T10:45:22.861Z,20.35
2019-05-28T10:47:53.184Z,20.61
2019-05-28T10:50:23.648Z,20.50
2019-05-28T10:52:53.147Z,21.51
2019-05-28T10:55:22.720Z,22.30
2019-05-28T10:57:52.199Z,22.58
2019-05-28T11:00:23.441Z,23.07
2019-05-28T11:02:53.196Z,22.76
2019-05-28T11:05:22.979Z,22.26
2019-05-28T11:07:52.441Z,22.32
2019-05-28T11:10:24.789Z,22.25
2019-05-28T11:12:54.437Z,22.56
2019-05-28T11:15:26.158Z,22.86
2019-05-28T11:17:55.955Z,23.13
2019-05-28T11:20:26.038Z,22.66
2019-05-28T11:22:55.752Z,22.96
2019-05-28T11:25:25.478Z,23.09
2019-05-28T11:27:55.062Z,23.05
2019-05-28T11:30:24.932Z,22.82
2019-05-28T11:32:54.391Z,22.92
2019-05-28T11:35:24.202Z,23.00
2019-05-28T11:37:53.692Z,22.95
2019-05-28T11:40:23.576Z,23.12
2019-05-28T11:42:53.093Z,23.32
2019-05-28T11:45:24.512Z,23.50
2019-05-28T11:47:54.007Z,23.57
2019-05-28T11:50:23.648Z,24.00
2019-05-28T11:52:53.119Z,24.08
2019-05-28T11:55:23.089Z,24.49
2019-05-28T11:57:52.516Z,24.72
2019-05-28T12:00:23.005Z,24.92
2019-05-28T12:02:52.462Z,24.95
2019-05-28T12:05:24.586Z,24.98
2019-05-28T12:07:54.031Z,24.65
2019-05-28T12:10:25.079Z,24.58
2019-05-28T12:12:54.517Z,24.43
2019-05-28T12:15:24.232Z,24.09
2019-05-28T12:17:53.686Z,23.88
2019-05-28T12:20:24.127Z,23.45
2019-05-28T12:23:09.836Z,22.38
2019-05-28T12:25:24.969Z,21.14
2019-05-28T12:27:54.398Z,20.47
2019-05-28T12:30:24.365Z,19.31
2019-05-28T12:32:53.822Z,17.99
2019-05-28T12:35:29.432Z,17.52
2019-05-28T12:37:54.686Z,17.46
2019-05-28T12:40:24.360Z,17.59
2019-05-28T12:42:53.796Z,17.01
2019-05-28T12:45:35.118Z,17.37
2019-05-28T12:48:08.039Z,17.50
2019-05-28T12:50:25.994Z,17.45
2019-05-28T12:52:55.436Z,17.42
2019-05-28T12:55:25.030Z,17.24
2019-05-28T12:57:54.641Z,17.14
2019-05-28T13:00:26.496Z,17.26
2019-05-28T13:02:55.974Z,17.17
2019-05-28T13:05:28.496Z,16.66
2019-05-28T13:08:08.343Z,16.82
2019-05-28T13:10:29.252Z,16.98
2019-05-28T13:12:58.699Z,16.96
2019-05-28T13:15:28.276Z,16.96
2019-05-28T13:17:57.785Z,17.13
2019-05-28T13:20:27.244Z,17.30
2019-05-28T13:22:56.690Z,17.39
2019-05-28T13:25:26.145Z,17.27
2019-05-28T13:27:55.585Z,17.22
2019-05-28T13:30:25.166Z,16.82
2019-05-28T13:32:54.775Z,16.95
2019-05-28T13:35:25.303Z,17.47
2019-05-28T13:37:54.879Z,17.65
2019-05-28T13:40:25.041Z,18.40
2019-05-28T13:42:54.585Z,19.24
2019-05-28T13:45:24.476Z,20.03
2019-05-28T13:47:53.982Z,20.87
2019-05-28T13:50:23.824Z,20.46
2019-05-28T13:52:53.284Z,20.38
2019-05-28T13:55:22.856Z,20.72
2019-05-28T13:57:52.330Z,21.37
2019-05-28T14:00:23.013Z,21.43
2019-05-28T14:02:52.483Z,21.02
2019-05-28T14:05:22.127Z,20.77
2019-05-28T14:07:51.586Z,20.66
2019-05-28T14:10:21.180Z,20.16
2019-05-28T14:12:50.659Z,19.47
2019-05-28T14:15:21.583Z,18.88
2019-05-28T14:17:51.117Z,19.06
2019-05-28T14:20:20.991Z,19.11
2019-05-28T14:22:50.437Z,19.10
2019-05-28T14:25:20.034Z,18.92
2019-05-28T14:27:49.524Z,19.06
2019-05-28T14:30:20.828Z,19.64
2019-05-28T14:32:50.307Z,20.07
2019-05-28T14:35:19.924Z,20.75
2019-05-28T14:37:49.399Z,20.97
2019-05-28T14:40:23.780Z,21.43
2019-05-28T14:42:50.785Z,21.88
2019-05-28T14:45:20.858Z,22.24
2019-05-28T14:47:50.383Z,22.06
2019-05-28T14:50:20.210Z,22.22
2019-05-28T14:52:49.701Z,22.33
2019-05-28T14:55:19.480Z,21.98
2019-05-28T14:57:48.959Z,22.31
2019-05-28T15:00:20.907Z,22.80
2019-05-28T15:02:50.386Z,24.56
2019-05-28T15:05:19.905Z,25.15
2019-05-28T15:07:49.437Z,24.60
2019-05-28T15:10:19.802Z,23.95
2019-05-28T15:12:49.280Z,23.79
2019-05-28T15:15:34.447Z,23.56
2019-05-28T15:17:50.364Z,23.88
2019-05-28T15:20:20.436Z,24.91
2019-05-28T15:22:49.922Z,25.09
2019-05-28T15:25:19.542Z,24.28
2019-05-28T15:27:49.036Z,23.52
2019-05-28T15:30:18.764Z,24.63
2019-05-28T15:32:48.258Z,24.95
2019-05-28T15:35:18.156Z,24.42
2019-05-28T15:37:47.655Z,26.56
2019-05-28T15:40:17.384Z,28.80
2019-05-28T15:42:46.870Z,30.26
2019-05-28T15:45:16.597Z,31.72
2019-05-28T15:47:46.097Z,32.52
2019-05-28T15:50:15.820Z,32.89
2019-05-28T15:52:45.301Z,32.44
2019-05-28T15:55:15.333Z,30.35
2019-05-28T15:57:45.614Z,29.53
2019-05-28T16:00:22.708Z,28.20
2019-05-28T16:02:52.988Z,27.70
2019-05-28T16:05:22.592Z,27.11
2019-05-28T16:07:52.095Z,26.72
2019-05-28T16:10:21.741Z,25.73
2019-05-28T16:12:51.205Z,24.62
2019-05-28T16:15:20.874Z,24.05
2019-05-28T16:17:50.357Z,23.67
2019-05-28T16:20:20.882Z,23.36
2019-05-28T16:22:50.336Z,23.12
2019-05-28T16:25:19.866Z,22.71
2019-05-28T16:27:49.345Z,22.36
2019-05-28T16:30:19.078Z,22.19
2019-05-28T16:32:48.624Z,22.16
2019-05-28T16:35:20.449Z,22.35
2019-05-28T16:37:49.952Z,23.52
2019-05-28T16:40:20.643Z,26.39
2019-05-28T16:42:50.077Z,28.64
2019-05-28T16:45:19.947Z,30.69
2019-05-28T16:47:49.380Z,32.97
2019-05-28T16:50:19.758Z,34.14
2019-05-28T16:52:49.203Z,35.00
2019-05-28T16:55:19.155Z,35.78
2019-05-28T16:57:48.594Z,36.80
2019-05-28T17:00:18.992Z,35.98
2019-05-28T17:02:48.452Z,36.68
2019-05-28T17:05:18.053Z,35.52
2019-05-28T17:07:47.503Z,35.48
2019-05-28T17:10:31.552Z,35.25
2019-05-28T17:12:49.024Z,33.48
2019-05-28T17:15:20.046Z,31.21
2019-05-28T17:17:49.497Z,29.80
2019-05-28T17:20:20.606Z,28.77
2019-05-28T17:22:50.047Z,27.82
2019-05-28T17:25:19.566Z,26.11
2019-05-28T17:27:49.015Z,25.52
2019-05-28T17:30:23.603Z,25.06
2019-05-28T17:32:50.035Z,24.31
2019-05-28T17:35:19.549Z,23.68
2019-05-28T17:37:48.993Z,23.29
2019-05-28T17:40:21.892Z,23.08
2019-05-28T17:42:49.898Z,22.58
2019-05-28T17:45:19.530Z,22.18
2019-05-28T17:47:48.970Z,22.02
2019-05-28T17:50:18.835Z,21.60
2019-05-28T17:52:51.438Z,21.50
2019-05-28T17:55:19.502Z,21.20
2019-05-28T17:57:48.967Z,21.05
2019-05-28T18:00:18.467Z,20.94
2019-05-28T18:02:48.740Z,20.69
2019-05-28T18:05:18.481Z,20.55
2019-05-28T18:07:48.214Z,20.25
2019-05-28T18:10:18.141Z,20.16
2019-05-28T18:12:47.596Z,19.94
2019-05-28T18:15:17.477Z,19.74
2019-05-28T18:17:46.910Z,19.74
2019-05-28T18:20:17.107Z,19.63
2019-05-28T18:22:46.544Z,19.55
2019-05-28T18:25:15.988Z,19.54
2019-05-28T18:27:45.440Z,19.37
2019-05-28T18:30:16.431Z,19.39
2019-05-28T18:32:46.133Z,19.39
2019-05-28T18:35:15.811Z,19.42
2019-05-28T18:37:45.340Z,19.31
2019-05-28T18:40:15.229Z,19.28
2019-05-28T18:42:44.682Z,19.35
2019-05-28T18:45:14.270Z,19.33
2019-05-28T18:47:43.729Z,19.33
2019-05-28T18:50:13.400Z,19.18
2019-05-28T18:52:42.832Z,18.93
2019-05-28T18:55:12.700Z,18.81
2019-05-28T18:57:42.136Z,18.73
2019-05-28T19:00:12.414Z,18.49
2019-05-28T19:02:41.851Z,18.50
2019-05-28T19:05:12.859Z,18.06
2019-05-28T19:07:42.307Z,18.09
2019-05-28T19:10:12.480Z,17.99
2019-05-28T19:12:41.940Z,18.00
2019-05-28T19:15:11.610Z,17.93
2019-05-28T19:17:41.060Z,17.81
2019-05-28T19:20:11.210Z,17.72
2019-05-28T19:22:40.659Z,17.75
2019-05-28T19:25:11.851Z,17.75
2019-05-28T19:27:41.305Z,17.70
2019-05-28T19:30:11.949Z,17.74
2019-05-28T19:32:41.382Z,17.72
2019-05-28T19:35:11.444Z,17.67
2019-05-28T19:37:41.200Z,17.65
2019-05-28T19:40:11.650Z,17.70
2019-05-28T19:42:41.094Z,17.68
2019-05-28T19:45:10.779Z,17.56
2019-05-28T19:47:40.215Z,17.55
2019-05-28T19:50:09.829Z,17.46
2019-05-28T19:52:39.531Z,17.45
2019-05-28T19:55:09.339Z,17.52
2019-05-28T19:57:38.845Z,17.49
2019-05-28T20:00:08.959Z,17.37
2019-05-28T20:02:38.380Z,17.33
2019-05-28T20:05:09.442Z,16.96
2019-05-28T20:07:38.878Z,17.00
2019-05-28T20:10:08.518Z,16.97
2019-05-28T20:12:37.981Z,17.08
2019-05-28T20:15:12.400Z,17.02
2019-05-28T20:17:41.891Z,17.11
2019-05-28T20:20:12.627Z,17.17
2019-05-28T20:22:42.087Z,17.09
2019-05-28T20:25:12.797Z,17.09
2019-05-28T20:27:42.251Z,17.19
2019-05-28T20:30:12.592Z,17.17
2019-05-28T20:32:42.044Z,17.13
2019-05-28T20:35:11.783Z,17.17
2019-05-28T20:37:41.191Z,17.08
2019-05-28T20:40:10.763Z,17.12
2019-05-28T20:42:40.601Z,17.13
2019-05-28T20:45:12.051Z,17.12
2019-05-28T20:47:41.690Z,16.99
2019-05-28T20:50:11.946Z,16.98
2019-05-28T20:52:41.440Z,16.64
2019-05-28T20:55:12.174Z,16.87
2019-05-28T20:57:41.581Z,16.96
2019-05-28T21:00:11.741Z,16.79
2019-05-28T21:02:41.180Z,16.65
2019-05-28T21:05:10.847Z,16.60
2019-05-28T21:07:40.340Z,16.46
2019-05-28T21:10:11.353Z,16.33
2019-05-28T21:12:44.508Z,16.13
2019-05-28T21:15:15.726Z,16.35
2019-05-28T21:17:43.683Z,16.18
2019-05-28T21:20:14.317Z,16.24
2019-05-28T21:22:43.759Z,15.96
2019-05-28T21:25:15.047Z,16.07
2019-05-28T21:27:44.488Z,16.07
2019-05-28T21:30:15.849Z,16.07
2019-05-28T21:32:45.290Z,15.92
2019-05-28T21:35:14.975Z,16.05
2019-05-28T21:37:44.506Z,16.04
2019-05-28T21:40:14.351Z,16.03
2019-05-28T21:42:58.648Z,15.65
2019-05-28T21:45:16.442Z,15.77
2019-05-28T21:47:45.891Z,15.51
2019-05-28T21:50:15.872Z,15.72
2019-05-28T21:52:45.332Z,15.75
2019-05-28T21:55:15.133Z,15.62
2019-05-28T21:57:44.590Z,15.65
2019-05-28T22:00:34.931Z,15.62
2019-05-28T22:03:05.098Z,15.66
2019-05-28T22:05:34.573Z,15.39
2019-05-28T22:08:04.885Z,15.66
2019-05-28T22:10:34.435Z,15.75
2019-05-28T22:13:18.410Z,15.66
2019-05-28T22:15:35.110Z,15.58
2019-05-28T22:18:04.628Z,15.28
2019-05-28T22:20:34.078Z,15.13
2019-05-28T22:23:04.580Z,15.14
2019-05-28T22:25:34.056Z,15.30
2019-05-28T22:28:03.491Z,15.24
2019-05-28T22:30:32.927Z,15.25
2019-05-28T22:33:02.394Z,15.43
2019-05-28T22:35:31.874Z,15.51
2019-05-28T22:38:01.311Z,15.52
2019-05-28T22:40:30.814Z,15.50
2019-05-28T22:43:00.611Z,15.59
2019-05-28T22:45:30.090Z,15.64
2019-05-28T22:47:59.539Z,15.41
2019-05-28T22:50:29.056Z,15.46
2019-05-28T22:52:59.593Z,15.59
2019-05-28T22:55:29.235Z,15.64
2019-05-28T22:57:58.678Z,15.64
2019-05-28T23:00:28.134Z,15.68
2019-05-28T23:02:58.734Z,15.89
2019-05-28T23:05:28.200Z,15.68
2019-05-28T23:07:57.900Z,15.74
2019-05-28T23:10:27.332Z,15.67
2019-05-28T23:12:56.787Z,15.79
2019-05-28T23:15:26.613Z,15.45
2019-05-28T23:17:56.071Z,15.49
2019-05-28T23:20:25.519Z,15.61
2019-05-28T23:22:54.963Z,15.60
2019-05-28T23:25:24.397Z,15.30
2019-05-28T23:27:53.840Z,15.40
2019-05-28T23:30:25.593Z,15.41
2019-05-28T23:32:55.309Z,15.29
2019-05-28T23:35:24.750Z,15.14
2019-05-28T23:37:54.191Z,15.18
2019-05-28T23:40:23.781Z,15.16
2019-05-28T23:42:53.225Z,14.99
2019-05-28T23:45:22.691Z,15.06
2019-05-28T23:47:52.129Z,15.03
2019-05-28T23:50:21.654Z,14.92
2019-05-28T23:52:51.087Z,15.11
2019-05-28T23:55:20.590Z,14.92
2019-05-28T23:57:50.046Z,14.94
